createdAt,value
2023-01-29T00:02:20.991Z,25.90
2023-01-29T00:04:49.130Z,25.60
2023-01-29T00:07:17.317Z,27.30
2023-01-29T00:09:45.290Z,24.13
2023-01-29T00:12:13.226Z,23.17
2023-01-29T00:14:41.295Z,25.10
2023-01-29T00:17:10.298Z,26.30
2023-01-29T00:19:39.675Z,25.53
2023-01-29T00:22:07.620Z,23.70
2023-01-29T00:24:35.725Z,24.77
2023-01-29T00:27:03.693Z,26.27
2023-01-29T00:29:31.788Z,27.17
2023-01-29T00:32:00.054Z,28.37
2023-01-29T00:34:28.178Z,27.60
2023-01-29T00:37:04.753Z,24.37
2023-01-29T00:39:47.388Z,26.00
2023-01-29T00:42:33.560Z,27.00
2023-01-29T00:45:01.562Z,27.23
2023-01-29T00:47:33.561Z,27.70
2023-01-29T00:50:02.469Z,24.20
2023-01-29T00:52:32.155Z,25.33
2023-01-29T00:55:01.780Z,22.57
2023-01-29T00:57:31.545Z,21.10
2023-01-29T00:59:59.915Z,21.10
2023-01-29T01:02:45.953Z,20.90
2023-01-29T01:05:18.844Z,20.10
2023-01-29T01:07:49.844Z,21.40
2023-01-29T01:10:22.190Z,22.23
2023-01-29T01:12:53.528Z,20.00
2023-01-29T01:15:22.753Z,22.00
2023-01-29T01:17:54.268Z,18.77
2023-01-29T01:20:23.440Z,21.70
2023-01-29T01:22:55.760Z,19.80
2023-01-29T01:25:24.502Z,20.30
2023-01-29T01:27:53.853Z,19.43
2023-01-29T01:30:22.476Z,18.70
2023-01-29T01:32:50.808Z,19.40
2023-01-29T01:35:19.547Z,20.47
2023-01-29T01:37:47.742Z,19.40
2023-01-29T01:40:19.758Z,19.40
2023-01-29T01:42:49.709Z,20.17
2023-01-29T01:45:24.257Z,22.90
2023-01-29T01:47:57.304Z,20.20
2023-01-29T01:50:30.653Z,23.13
2023-01-29T01:53:03.476Z,19.27
2023-01-29T01:55:35.545Z,17.47
2023-01-29T01:58:10.773Z,19.93
2023-01-29T02:00:40.925Z,16.23
2023-01-29T02:03:28.337Z,21.20
2023-01-29T02:06:15.540Z,22.03
2023-01-29T02:09:06.589Z,18.73
2023-01-29T02:11:38.386Z,17.87
2023-01-29T02:14:06.409Z,19.63
2023-01-29T02:16:36.500Z,21.33
2023-01-29T02:19:09.956Z,19.23
2023-01-29T02:22:06.475Z,18.90
2023-01-29T02:25:10.845Z,19.40
2023-01-29T02:28:14.024Z,19.37
2023-01-29T02:30:47.114Z,17.83
2023-01-29T02:33:23.916Z,18.90
2023-01-29T02:36:00.400Z,17.00
2023-01-29T02:38:36.222Z,19.53
2023-01-29T02:41:10.486Z,19.23
2023-01-29T02:43:47.513Z,20.13
2023-01-29T02:46:22.373Z,15.87
2023-01-29T02:49:00.729Z,18.80
2023-01-29T02:51:35.951Z,17.37
2023-01-29T02:54:07.227Z,19.60
2023-01-29T02:56:41.178Z,20.17
2023-01-29T02:59:17.498Z,17.17
2023-01-29T03:01:51.268Z,20.83
2023-01-29T03:04:23.910Z,15.67
2023-01-29T03:06:56.444Z,20.47
2023-01-29T03:09:31.156Z,18.53
2023-01-29T03:12:19.823Z,16.97
2023-01-29T03:15:10.085Z,16.90
2023-01-29T03:17:42.976Z,17.13
2023-01-29T03:20:15.893Z,20.47
2023-01-29T03:22:50.660Z,17.57
2023-01-29T03:25:39.298Z,19.80
2023-01-29T03:28:26.963Z,18.77
2023-01-29T03:31:22.009Z,18.67
2023-01-29T03:34:01.566Z,16.73
2023-01-29T03:36:38.320Z,18.20
2023-01-29T03:39:07.564Z,19.50
2023-01-29T03:41:39.771Z,16.10
2023-01-29T03:44:15.604Z,16.57
2023-01-29T03:46:52.427Z,17.90
2023-01-29T03:49:28.423Z,17.57
2023-01-29T03:52:02.256Z,17.77
2023-01-29T03:54:40.413Z,16.87
2023-01-29T03:57:17.362Z,16.40
2023-01-29T03:59:54.775Z,17.13
2023-01-29T04:02:48.731Z,19.87
2023-01-29T04:05:21.298Z,18.17
2023-01-29T04:08:15.702Z,17.90
2023-01-29T04:10:46.379Z,15.97
2023-01-29T04:13:16.914Z,20.47
2023-01-29T04:15:51.479Z,18.37
2023-01-29T04:18:26.830Z,18.13
2023-01-29T04:21:08.245Z,19.30
2023-01-29T04:23:36.970Z,18.93
2023-01-29T04:26:26.147Z,20.23
2023-01-29T04:29:05.351Z,17.93
2023-01-29T04:31:39.420Z,17.10
2023-01-29T04:34:20.271Z,17.17
2023-01-29T04:36:57.387Z,19.13
2023-01-29T04:39:33.055Z,18.17
2023-01-29T04:42:08.386Z,23.07
2023-01-29T04:44:44.761Z,20.80
2023-01-29T04:47:22.514Z,18.83
2023-01-29T04:50:00.312Z,19.50
2023-01-29T04:52:39.960Z,19.57
2023-01-29T04:55:16.817Z,19.10
2023-01-29T04:57:51.898Z,21.60
2023-01-29T05:00:24.057Z,17.03
2023-01-29T05:02:52.551Z,18.00
2023-01-29T05:05:22.684Z,18.27
2023-01-29T05:07:51.503Z,15.43
2023-01-29T05:10:21.555Z,16.87
2023-01-29T05:12:56.204Z,17.03
2023-01-29T05:15:27.627Z,16.30
2023-01-29T05:18:01.866Z,17.27
2023-01-29T05:20:33.635Z,16.50
2023-01-29T05:23:01.760Z,15.03
2023-01-29T05:25:32.502Z,15.40
2023-01-29T05:28:05.791Z,18.10
2023-01-29T05:30:36.252Z,17.83
2023-01-29T05:33:04.874Z,15.70
2023-01-29T05:35:34.844Z,16.57
2023-01-29T05:38:02.875Z,15.90
2023-01-29T05:40:30.955Z,18.40
2023-01-29T05:42:58.926Z,18.03
2023-01-29T05:45:27.319Z,17.40
2023-01-29T05:47:57.870Z,17.67
2023-01-29T05:50:26.789Z,17.57
2023-01-29T05:52:59.367Z,18.33
2023-01-29T05:55:29.393Z,15.70
2023-01-29T05:57:57.542Z,17.20
2023-01-29T06:00:25.853Z,17.13
2023-01-29T06:02:53.904Z,15.33
2023-01-29T06:05:21.898Z,15.93
2023-01-29T06:07:49.865Z,16.20
2023-01-29T06:10:20.233Z,14.83
2023-01-29T06:12:48.339Z,17.07
2023-01-29T06:15:16.520Z,18.43
2023-01-29T06:17:44.545Z,19.47
2023-01-29T06:20:13.318Z,18.80
2023-01-29T06:22:41.323Z,18.90
2023-01-29T06:25:10.348Z,18.33
2023-01-29T06:27:39.728Z,19.03
2023-01-29T06:30:09.029Z,18.17
2023-01-29T06:32:37.116Z,19.07
2023-01-29T06:35:05.766Z,21.63
2023-01-29T06:37:33.730Z,19.43
2023-01-29T06:40:01.743Z,18.60
2023-01-29T06:42:29.776Z,16.53
2023-01-29T06:44:59.352Z,17.67
2023-01-29T06:47:28.964Z,17.07
2023-01-29T06:49:56.941Z,14.57
2023-01-29T06:52:25.631Z,16.67
2023-01-29T06:54:53.595Z,17.97
2023-01-29T06:57:21.597Z,16.70
2023-01-29T06:59:49.653Z,17.50
2023-01-29T07:02:19.247Z,21.27
2023-01-29T07:04:47.293Z,16.93
2023-01-29T07:07:15.266Z,16.53
2023-01-29T07:09:44.164Z,20.17
2023-01-29T07:12:12.711Z,17.40
2023-01-29T07:14:40.783Z,18.43
2023-01-29T07:17:08.788Z,18.63
2023-01-29T07:19:38.131Z,19.13
2023-01-29T07:22:06.088Z,16.57
2023-01-29T07:24:34.179Z,18.37
2023-01-29T07:27:02.175Z,17.80
2023-01-29T07:29:30.121Z,18.07
2023-01-29T07:31:58.152Z,14.80
2023-01-29T07:34:26.204Z,16.50
2023-01-29T07:36:56.834Z,18.17
2023-01-29T07:39:24.886Z,17.13
2023-01-29T07:41:52.887Z,18.37
2023-01-29T07:44:24.154Z,18.40
2023-01-29T07:46:52.127Z,18.53
2023-01-29T07:49:20.073Z,15.87
2023-01-29T07:51:48.023Z,16.83
2023-01-29T07:54:17.378Z,19.17
2023-01-29T07:56:45.348Z,21.07
2023-01-29T07:59:13.320Z,20.43
2023-01-29T08:01:41.251Z,19.30
2023-01-29T08:04:09.261Z,22.30
2023-01-29T08:06:37.209Z,19.53
2023-01-29T08:09:05.274Z,20.17
2023-01-29T08:11:34.648Z,20.30
2023-01-29T08:14:02.646Z,19.30
2023-01-29T08:16:30.645Z,20.37
2023-01-29T08:18:58.632Z,20.00
2023-01-29T08:21:26.580Z,16.90
2023-01-29T08:23:54.734Z,22.23
2023-01-29T08:26:22.759Z,18.07
2023-01-29T08:28:52.103Z,19.67
2023-01-29T08:31:21.642Z,17.57
2023-01-29T08:33:49.760Z,19.33
2023-01-29T08:36:17.769Z,18.97
2023-01-29T08:38:45.732Z,21.60
2023-01-29T08:41:13.681Z,17.80
2023-01-29T08:43:41.679Z,18.93
2023-01-29T08:46:11.099Z,20.27
2023-01-29T08:48:39.414Z,20.50
2023-01-29T08:51:07.764Z,18.60
2023-01-29T08:53:35.979Z,20.83
2023-01-29T08:56:03.995Z,20.13
2023-01-29T08:58:32.012Z,18.00
2023-01-29T09:01:07.459Z,22.93
2023-01-29T09:03:37.324Z,20.73
2023-01-29T09:06:05.711Z,21.43
2023-01-29T09:08:34.004Z,23.60
2023-01-29T09:11:01.954Z,20.03
2023-01-29T09:13:29.933Z,24.40
2023-01-29T09:16:00.706Z,24.40
2023-01-29T09:18:28.957Z,20.23
2023-01-29T09:20:58.717Z,23.37
2023-01-29T09:23:26.744Z,21.63
2023-01-29T09:25:54.710Z,19.40
2023-01-29T09:28:22.714Z,20.83
2023-01-29T09:30:50.774Z,17.40
2023-01-29T09:33:19.565Z,19.40
2023-01-29T09:35:47.979Z,19.00
2023-01-29T09:38:17.380Z,16.40
2023-01-29T09:40:56.723Z,19.00
2023-01-29T09:43:30.945Z,17.27
2023-01-29T09:46:03.175Z,14.93
2023-01-29T09:48:35.395Z,16.83
2023-01-29T09:51:08.388Z,20.23
2023-01-29T09:53:42.284Z,16.60
2023-01-29T09:56:15.592Z,20.83
2023-01-29T09:58:44.656Z,18.97
2023-01-29T10:01:20.795Z,18.43
2023-01-29T10:04:16.462Z,22.10
2023-01-29T10:06:56.311Z,21.97
2023-01-29T10:09:43.067Z,19.13
2023-01-29T10:12:25.610Z,23.17
2023-01-29T10:15:01.883Z,21.63
2023-01-29T10:17:50.498Z,19.27
2023-01-29T10:20:35.691Z,20.33
2023-01-29T10:23:16.680Z,22.80
2023-01-29T10:25:48.287Z,20.33
2023-01-29T10:28:19.665Z,22.73
2023-01-29T10:30:50.727Z,21.87
2023-01-29T10:33:24.410Z,23.33
2023-01-29T10:35:56.879Z,22.43
2023-01-29T10:38:32.514Z,21.47
2023-01-29T10:41:15.552Z,24.50
2023-01-29T10:43:55.713Z,23.80
2023-01-29T10:46:33.404Z,23.27
2023-01-29T10:49:11.756Z,25.07
2023-01-29T10:51:52.814Z,23.80
2023-01-29T10:54:39.070Z,20.87
2023-01-29T10:57:18.758Z,23.20
2023-01-29T11:00:00.234Z,24.37
2023-01-29T11:02:28.304Z,23.70
2023-01-29T11:04:56.320Z,24.67
2023-01-29T11:07:24.571Z,23.37
2023-01-29T11:09:58.919Z,25.93
2023-01-29T11:12:33.541Z,23.00
2023-01-29T11:15:06.485Z,24.40
2023-01-29T11:17:34.656Z,21.50
2023-01-29T11:20:02.635Z,23.97
2023-01-29T11:22:31.565Z,23.20
2023-01-29T11:25:12.565Z,22.13
2023-01-29T11:27:46.489Z,24.53
2023-01-29T11:30:22.975Z,25.80
2023-01-29T11:32:58.471Z,24.20
2023-01-29T11:35:27.909Z,26.57
2023-01-29T11:38:08.456Z,21.67
2023-01-29T11:40:41.491Z,22.50
2023-01-29T11:43:32.137Z,21.33
2023-01-29T11:46:02.840Z,20.80
2023-01-29T11:48:41.776Z,20.83
2023-01-29T11:51:12.263Z,24.87
2023-01-29T11:53:42.124Z,26.67
2023-01-29T11:56:23.303Z,23.83
2023-01-29T11:58:56.318Z,23.07
2023-01-29T12:01:34.214Z,22.67
2023-01-29T12:04:02.865Z,22.90
2023-01-29T12:06:36.049Z,23.00
2023-01-29T12:09:10.760Z,20.93
2023-01-29T12:11:38.812Z,23.93
2023-01-29T12:14:30.083Z,26.57
2023-01-29T12:17:02.405Z,24.73
2023-01-29T12:19:37.312Z,23.43
2023-01-29T12:22:12.090Z,23.33
2023-01-29T12:24:49.500Z,21.37
2023-01-29T12:27:23.604Z,23.50
2023-01-29T12:30:02.056Z,24.50
2023-01-29T12:32:39.638Z,26.03
2023-01-29T12:35:13.758Z,24.20
2023-01-29T12:37:50.167Z,23.50
2023-01-29T12:40:20.700Z,22.20
2023-01-29T12:42:51.573Z,21.30
2023-01-29T12:45:23.833Z,20.23
2023-01-29T12:47:55.878Z,24.00
2023-01-29T12:50:29.002Z,21.60
2023-01-29T12:52:59.664Z,23.37
2023-01-29T12:55:31.596Z,20.17
2023-01-29T12:58:01.920Z,22.37
2023-01-29T13:00:35.024Z,23.80
2023-01-29T13:03:09.594Z,21.43
2023-01-29T13:05:44.007Z,23.50
2023-01-29T13:08:17.450Z,21.40
2023-01-29T13:10:50.598Z,22.47
2023-01-29T13:13:28.875Z,21.23
2023-01-29T13:16:01.008Z,23.40
2023-01-29T13:18:43.180Z,24.67
2023-01-29T13:21:17.197Z,23.13
2023-01-29T13:23:48.309Z,23.07
2023-01-29T13:26:20.006Z,24.87
2023-01-29T13:28:48.368Z,22.90
2023-01-29T13:31:28.461Z,24.50
2023-01-29T13:34:03.845Z,21.97
2023-01-29T13:36:32.885Z,20.50
2023-01-29T13:39:06.898Z,22.60
2023-01-29T13:41:41.601Z,25.13
2023-01-29T13:44:23.889Z,25.30
2023-01-29T13:46:57.446Z,22.23
2023-01-29T13:49:33.696Z,22.40
2023-01-29T13:52:17.107Z,22.60
2023-01-29T13:54:54.324Z,24.33
2023-01-29T13:57:50.491Z,24.73
2023-01-29T14:00:58.887Z,25.60
2023-01-29T14:04:04.905Z,23.37
2023-01-29T14:06:51.168Z,27.23
2023-01-29T14:10:04.159Z,23.83
2023-01-29T14:12:40.243Z,23.77
2023-01-29T14:15:33.555Z,24.47
2023-01-29T14:18:06.155Z,23.67
2023-01-29T14:20:46.024Z,23.57
2023-01-29T14:23:44.119Z,24.93
2023-01-29T14:26:26.106Z,22.87
2023-01-29T14:28:58.896Z,28.03
2023-01-29T14:31:39.963Z,27.27
2023-01-29T14:34:15.884Z,23.03
2023-01-29T14:36:48.164Z,23.87
2023-01-29T14:39:25.299Z,23.43
2023-01-29T14:41:53.962Z,25.47
2023-01-29T14:45:04.168Z,26.53
2023-01-29T14:48:04.114Z,24.20
2023-01-29T14:50:55.131Z,22.67
2023-01-29T14:53:47.674Z,22.10
2023-01-29T14:56:19.156Z,22.87
2023-01-29T14:58:50.044Z,23.97
2023-01-29T15:01:24.551Z,25.00
2023-01-29T15:03:54.633Z,25.97
2023-01-29T15:06:33.051Z,25.47
2023-01-29T15:09:07.876Z,23.67
2023-01-29T15:11:48.328Z,22.70
2023-01-29T15:14:24.122Z,24.73
2023-01-29T15:17:03.534Z,28.07
2023-01-29T15:19:36.337Z,24.50
2023-01-29T15:22:10.599Z,24.57
2023-01-29T15:24:41.345Z,23.83
2023-01-29T15:27:14.235Z,23.53
2023-01-29T15:29:43.747Z,22.27
2023-01-29T15:32:18.047Z,24.00
2023-01-29T15:34:46.078Z,22.87
2023-01-29T15:37:28.071Z,24.23
2023-01-29T15:39:57.562Z,24.47
2023-01-29T15:42:27.937Z,21.43
2023-01-29T15:44:56.849Z,23.47
2023-01-29T15:47:31.845Z,25.00
2023-01-29T15:50:01.208Z,24.73
2023-01-29T15:52:33.060Z,25.23
2023-01-29T15:55:06.250Z,24.07
2023-01-29T15:57:40.455Z,22.27
2023-01-29T16:00:22.211Z,25.27
2023-01-29T16:02:50.428Z,20.53
2023-01-29T16:05:22.944Z,19.67
2023-01-29T16:07:52.314Z,22.33
2023-01-29T16:10:23.822Z,23.10
2023-01-29T16:12:53.113Z,22.33
2023-01-29T16:15:33.606Z,21.83
2023-01-29T16:18:03.838Z,24.67
2023-01-29T16:20:36.475Z,23.17
2023-01-29T16:23:05.696Z,21.47
2023-01-29T16:25:38.610Z,25.10
2023-01-29T16:28:08.439Z,25.50
2023-01-29T16:30:36.487Z,24.87
2023-01-29T16:33:07.591Z,24.37
2023-01-29T16:35:36.938Z,26.77
2023-01-29T16:38:08.426Z,25.77
2023-01-29T16:40:40.823Z,24.87
2023-01-29T16:43:50.260Z,23.57
2023-01-29T16:46:26.131Z,25.10
2023-01-29T16:48:54.864Z,23.80
2023-01-29T16:51:26.347Z,23.17
2023-01-29T16:53:59.370Z,22.63
2023-01-29T16:56:31.283Z,26.70
2023-01-29T16:59:00.215Z,27.10
2023-01-29T17:01:30.404Z,29.27
2023-01-29T17:04:05.732Z,31.07
2023-01-29T17:06:34.469Z,24.43
2023-01-29T17:09:03.191Z,25.80
2023-01-29T17:11:39.595Z,26.47
2023-01-29T17:14:09.599Z,33.17
2023-01-29T17:16:47.914Z,26.27
2023-01-29T17:19:20.868Z,28.20
2023-01-29T17:21:49.045Z,27.20
2023-01-29T17:24:17.005Z,27.97
2023-01-29T17:26:46.417Z,30.47
2023-01-29T17:29:16.616Z,28.30
2023-01-29T17:31:44.690Z,29.20
2023-01-29T17:34:14.932Z,29.60
2023-01-29T17:36:43.235Z,26.60
2023-01-29T17:39:17.867Z,29.63
2023-01-29T17:41:50.752Z,30.10
2023-01-29T17:44:19.056Z,28.67
2023-01-29T17:46:47.496Z,30.97
2023-01-29T17:49:24.189Z,32.20
2023-01-29T17:51:52.798Z,28.80
2023-01-29T17:54:21.840Z,27.73
2023-01-29T17:56:52.177Z,31.73
2023-01-29T17:59:22.167Z,28.50
2023-01-29T18:01:51.037Z,29.30
2023-01-29T18:04:19.254Z,30.00
2023-01-29T18:06:50.055Z,31.20
2023-01-29T18:09:20.617Z,31.67
2023-01-29T18:11:49.294Z,32.00
2023-01-29T18:14:18.989Z,31.30
2023-01-29T18:16:47.315Z,31.73
2023-01-29T18:19:20.238Z,29.20
2023-01-29T18:21:48.452Z,30.10
2023-01-29T18:24:16.583Z,26.63
2023-01-29T18:26:44.743Z,27.83
2023-01-29T18:29:12.745Z,27.77
2023-01-29T18:31:42.146Z,28.60
2023-01-29T18:34:10.222Z,28.83
2023-01-29T18:36:38.391Z,30.73
2023-01-29T18:39:06.383Z,27.50
2023-01-29T18:41:34.952Z,30.17
2023-01-29T18:44:02.995Z,26.57
2023-01-29T18:46:31.015Z,28.63
2023-01-29T18:49:00.428Z,27.27
2023-01-29T18:51:28.403Z,26.03
2023-01-29T18:53:56.395Z,28.73
2023-01-29T18:56:25.376Z,27.87
2023-01-29T18:58:56.077Z,29.30
2023-01-29T19:01:24.699Z,30.13
2023-01-29T19:03:52.976Z,29.30
2023-01-29T19:06:22.356Z,30.87
2023-01-29T19:08:50.321Z,29.30
2023-01-29T19:11:18.475Z,27.20
2023-01-29T19:13:47.961Z,29.23
2023-01-29T19:16:15.945Z,29.37
2023-01-29T19:18:43.992Z,29.87
2023-01-29T19:21:14.424Z,28.30
2023-01-29T19:23:44.854Z,26.87
2023-01-29T19:26:13.408Z,30.70
2023-01-29T19:28:41.850Z,25.73
2023-01-29T19:31:10.935Z,31.67
2023-01-29T19:33:39.288Z,33.17
2023-01-29T19:36:07.968Z,33.33
2023-01-29T19:38:38.711Z,31.27
2023-01-29T19:41:08.146Z,28.97
2023-01-29T19:43:38.160Z,29.77
2023-01-29T19:46:07.592Z,31.00
2023-01-29T19:48:35.739Z,31.93
2023-01-29T19:51:08.402Z,33.47
2023-01-29T19:53:37.789Z,30.57
2023-01-29T19:56:09.365Z,29.47
2023-01-29T19:58:37.732Z,30.53
2023-01-29T20:01:08.349Z,29.27
2023-01-29T20:03:38.049Z,31.20
2023-01-29T20:06:07.525Z,29.13
2023-01-29T20:08:36.426Z,37.57
2023-01-29T20:11:05.560Z,40.23
2023-01-29T20:13:35.146Z,41.73
2023-01-29T20:16:05.429Z,42.30
2023-01-29T20:18:34.138Z,39.07
2023-01-29T20:21:08.141Z,45.67
2023-01-29T20:23:38.593Z,42.00
2023-01-29T20:26:07.628Z,42.43
2023-01-29T20:28:37.379Z,44.87
2023-01-29T20:31:06.298Z,44.93
2023-01-29T20:33:35.065Z,41.10
2023-01-29T20:36:04.874Z,39.37
2023-01-29T20:38:34.567Z,45.23
2023-01-29T20:41:07.114Z,42.80
2023-01-29T20:43:36.930Z,39.60
2023-01-29T20:46:05.989Z,41.97
2023-01-29T20:48:34.325Z,36.67
2023-01-29T20:51:08.143Z,39.13
2023-01-29T20:53:36.519Z,36.83
2023-01-29T20:56:05.322Z,35.10
2023-01-29T20:58:33.623Z,33.00
2023-01-29T21:01:07.891Z,35.23
2023-01-29T21:03:35.888Z,33.40
2023-01-29T21:06:03.867Z,31.60
2023-01-29T21:08:32.005Z,31.13
2023-01-29T21:11:00.019Z,29.00
2023-01-29T21:13:28.048Z,31.03
2023-01-29T21:15:56.018Z,32.97
2023-01-29T21:18:26.389Z,39.17
2023-01-29T21:20:55.372Z,41.83
2023-01-29T21:23:23.785Z,42.30
2023-01-29T21:25:51.882Z,42.00
2023-01-29T21:28:19.888Z,38.37
2023-01-29T21:30:49.131Z,38.77
2023-01-29T21:33:17.845Z,37.60
2023-01-29T21:35:47.218Z,41.90
2023-01-29T21:38:15.220Z,45.73
2023-01-29T21:40:43.194Z,36.90
2023-01-29T21:43:13.135Z,32.47
2023-01-29T21:45:41.633Z,32.47
2023-01-29T21:48:10.498Z,33.13
2023-01-29T21:50:39.271Z,34.90
2023-01-29T21:53:08.642Z,34.17
2023-01-29T21:55:36.628Z,32.30
2023-01-29T21:58:04.651Z,31.97
2023-01-29T22:00:32.692Z,31.57
2023-01-29T22:03:00.816Z,30.90
2023-01-29T22:05:29.324Z,32.33
2023-01-29T22:07:57.405Z,33.93
2023-01-29T22:10:27.566Z,30.57
2023-01-29T22:12:55.928Z,31.17
2023-01-29T22:15:24.227Z,30.43
2023-01-29T22:17:52.429Z,29.87
2023-01-29T22:20:20.765Z,30.37
2023-01-29T22:22:48.784Z,29.97
2023-01-29T22:25:20.088Z,32.63
2023-01-29T22:27:49.593Z,35.83
2023-01-29T22:30:18.514Z,29.70
2023-01-29T22:32:46.690Z,29.83
2023-01-29T22:35:14.786Z,32.70
2023-01-29T22:37:42.787Z,32.23
2023-01-29T22:40:12.047Z,31.33
2023-01-29T22:42:40.044Z,33.30
2023-01-29T22:45:10.761Z,27.90
2023-01-29T22:47:39.269Z,32.37
2023-01-29T22:50:08.758Z,27.97
2023-01-29T22:52:39.458Z,35.43
2023-01-29T22:55:09.735Z,27.37
2023-01-29T22:57:38.264Z,27.57
2023-01-29T23:00:08.745Z,30.60
2023-01-29T23:02:38.389Z,33.80
2023-01-29T23:05:07.506Z,30.93
2023-01-29T23:07:35.698Z,29.33
2023-01-29T23:10:03.681Z,29.13
2023-01-29T23:12:31.703Z,31.00
2023-01-29T23:14:59.746Z,31.63
2023-01-29T23:17:27.770Z,35.33
2023-01-29T23:19:57.090Z,37.30
2023-01-29T23:22:25.113Z,31.37
2023-01-29T23:24:53.139Z,33.10
2023-01-29T23:27:20.169Z,36.73
2023-01-29T23:29:49.479Z,31.43
2023-01-29T23:32:20.034Z,34.13
2023-01-29T23:34:48.050Z,38.90
2023-01-29T23:37:17.398Z,38.27
2023-01-29T23:39:45.424Z,35.50
2023-01-29T23:42:13.422Z,36.20
2023-01-29T23:44:41.412Z,42.63
2023-01-29T23:47:10.030Z,36.50
2023-01-29T23:49:38.447Z,34.57
2023-01-29T23:52:06.692Z,40.33
2023-01-29T23:54:36.093Z,34.97
2023-01-29T23:57:04.112Z,39.90
2023-01-29T23:59:32.060Z,32.07
